sensor_id;sensor_type;location;lat;lon;timestamp;pressure;altitude;pressure_sealevel;temperature;humidity
84267;BME280;74414;51.098;13.716;2024-01-25T00:01:08;100311.44;;;7.72;64.23
84267;BME280;74414;51.098;13.716;2024-01-25T00:03:34;100316.03;;;7.68;64.65
84267;BME280;74414;51.098;13.716;2024-01-25T00:05:59;100314.41;;;7.67;64.85
84267;BME280;74414;51.098;13.716;2024-01-25T00:08:25;100311.88;;;7.62;64.92
84267;BME280;74414;51.098;13.716;2024-01-25T00:10:50;100311.88;;;7.62;65.00
84267;BME280;74414;51.098;13.716;2024-01-25T00:13:16;100301.06;;;7.57;65.12
84267;BME280;74414;51.098;13.716;2024-01-25T00:15:41;100313.50;;;7.63;65.20
84267;BME280;74414;51.098;13.716;2024-01-25T00:18:06;100327.47;;;7.58;65.13
84267;BME280;74414;51.098;13.716;2024-01-25T00:20:32;100321.03;;;7.54;65.39
84267;BME280;74414;51.098;13.716;2024-01-25T00:22:57;100313.38;;;7.60;64.81
84267;BME280;74414;51.098;13.716;2024-01-25T00:25:23;100324.50;;;7.63;64.89
84267;BME280;74414;51.098;13.716;2024-01-25T00:27:49;100330.97;;;7.67;64.79
84267;BME280;74414;51.098;13.716;2024-01-25T00:30:14;100325.44;;;7.67;64.69
84267;BME280;74414;51.098;13.716;2024-01-25T00:32:39;100335.66;;;7.67;64.70
84267;BME280;74414;51.098;13.716;2024-01-25T00:35:05;100333.03;;;7.70;64.62
84267;BME280;74414;51.098;13.716;2024-01-25T00:37:30;100340.47;;;7.70;64.49
84267;BME280;74414;51.098;13.716;2024-01-25T00:39:56;100332.22;;;7.70;64.68
84267;BME280;74414;51.098;13.716;2024-01-25T00:42:22;100337.06;;;7.73;64.11
84267;BME280;74414;51.098;13.716;2024-01-25T00:44:48;100339.22;;;7.67;64.48
84267;BME280;74414;51.098;13.716;2024-01-25T00:47:14;100335.66;;;7.67;64.54
84267;BME280;74414;51.098;13.716;2024-01-25T00:49:40;100340.34;;;7.66;64.49
84267;BME280;74414;51.098;13.716;2024-01-25T00:52:05;100344.28;;;7.65;64.55
84267;BME280;74414;51.098;13.716;2024-01-25T00:54:31;100350.25;;;7.67;64.12
84267;BME280;74414;51.098;13.716;2024-01-25T00:56:57;100350.72;;;7.69;64.11
84267;BME280;74414;51.098;13.716;2024-01-25T00:59:22;100355.41;;;7.69;63.85
84267;BME280;74414;51.098;13.716;2024-01-25T01:01:48;100355.53;;;7.72;64.00
84267;BME280;74414;51.098;13.716;2024-01-25T01:04:15;100350.50;;;7.74;63.88
84267;BME280;74414;51.098;13.716;2024-01-25T01:06:40;100351.63;;;7.73;63.89
84267;BME280;74414;51.098;13.716;2024-01-25T01:09:06;100355.53;;;7.72;63.82
84267;BME280;74414;51.098;13.716;2024-01-25T01:11:31;100357.94;;;7.74;63.41
84267;BME280;74414;51.098;13.716;2024-01-25T01:13:57;100370.59;;;7.75;63.67
84267;BME280;74414;51.098;13.716;2024-01-25T01:16:22;100375.31;;;7.74;63.71
84267;BME280;74414;51.098;13.716;2024-01-25T01:18:48;100372.56;;;7.74;63.30
84267;BME280;74414;51.098;13.716;2024-01-25T01:21:13;100372.91;;;7.73;63.86
84267;BME280;74414;51.098;13.716;2024-01-25T01:23:38;100376.44;;;7.73;63.54
84267;BME280;74414;51.098;13.716;2024-01-25T01:26:04;100371.75;;;7.74;63.65
84267;BME280;74414;51.098;13.716;2024-01-25T01:28:29;100374.84;;;7.72;63.63
84267;BME280;74414;51.098;13.716;2024-01-25T01:30:55;100373.25;;;7.71;63.89
84267;BME280;74414;51.098;13.716;2024-01-25T01:33:20;100370.13;;;7.73;63.48
84267;BME280;74414;51.098;13.716;2024-01-25T01:35:45;100367.50;;;7.76;63.75
84267;BME280;74414;51.098;13.716;2024-01-25T01:38:11;100371.38;;;7.75;63.71
84267;BME280;74414;51.098;13.716;2024-01-25T01:40:36;100378.88;;;7.75;64.02
84267;BME280;74414;51.098;13.716;2024-01-25T01:43:02;100372.19;;;7.76;63.44
84267;BME280;74414;51.098;13.716;2024-01-25T01:45:28;100385.53;;;7.74;63.99
84267;BME280;74414;51.098;13.716;2024-01-25T01:47:54;100388.97;;;7.71;64.18
84267;BME280;74414;51.098;13.716;2024-01-25T01:50:20;100382.97;;;7.69;63.90
84267;BME280;74414;51.098;13.716;2024-01-25T01:52:46;100381.34;;;7.68;63.82
84267;BME280;74414;51.098;13.716;2024-01-25T01:55:12;100379.88;;;7.70;63.88
84267;BME280;74414;51.098;13.716;2024-01-25T01:57:38;100368.75;;;7.67;64.04
84267;BME280;74414;51.098;13.716;2024-01-25T02:00:08;100377.34;;;7.65;64.12
84267;BME280;74414;51.098;13.716;2024-01-25T02:02:34;100382.72;;;7.62;64.13
84267;BME280;74414;51.098;13.716;2024-01-25T02:05:00;100369.97;;;7.57;64.20
84267;BME280;74414;51.098;13.716;2024-01-25T02:07:26;100380.09;;;7.65;63.58
84267;BME280;74414;51.098;13.716;2024-01-25T02:09:52;100376.88;;;7.63;63.82
84267;BME280;74414;51.098;13.716;2024-01-25T02:12:17;100371.69;;;7.62;63.80
84267;BME280;74414;51.098;13.716;2024-01-25T02:14:43;100372.44;;;7.71;63.60
84267;BME280;74414;51.098;13.716;2024-01-25T02:17:08;100368.84;;;7.70;63.50
84267;BME280;74414;51.098;13.716;2024-01-25T02:19:34;100368.75;;;7.67;63.57
84267;BME280;74414;51.098;13.716;2024-01-25T02:22:00;100362.88;;;7.68;63.43
84267;BME280;74414;51.098;13.716;2024-01-25T02:24:26;100373.09;;;7.68;63.18
84267;BME280;74414;51.098;13.716;2024-01-25T02:26:52;100373.91;;;7.68;63.10
84267;BME280;74414;51.098;13.716;2024-01-25T02:29:17;100380.56;;;7.67;63.26
84267;BME280;74414;51.098;13.716;2024-01-25T02:31:42;100372.78;;;7.69;63.36
84267;BME280;74414;51.098;13.716;2024-01-25T02:34:08;100386.88;;;7.68;63.48
84267;BME280;74414;51.098;13.716;2024-01-25T02:36:34;100377.34;;;7.65;63.34
84267;BME280;74414;51.098;13.716;2024-01-25T02:38:59;100379.94;;;7.62;63.35
84267;BME280;74414;51.098;13.716;2024-01-25T02:41:25;100385.16;;;7.63;63.37
84267;BME280;74414;51.098;13.716;2024-01-25T02:43:50;100381.69;;;7.66;63.41
84267;BME280;74414;51.098;13.716;2024-01-25T02:46:16;100388.84;;;7.67;63.28
84267;BME280;74414;51.098;13.716;2024-01-25T02:48:41;100372.97;;;7.64;63.42
84267;BME280;74414;51.098;13.716;2024-01-25T02:51:07;100376.41;;;7.61;63.69
84267;BME280;74414;51.098;13.716;2024-01-25T02:53:32;100388.56;;;7.60;63.62
84267;BME280;74414;51.098;13.716;2024-01-25T02:55:58;100395.25;;;7.59;63.46
84267;BME280;74414;51.098;13.716;2024-01-25T02:58:23;100407.19;;;7.63;63.20
84267;BME280;74414;51.098;13.716;2024-01-25T03:00:48;100404.44;;;7.63;63.33
84267;BME280;74414;51.098;13.716;2024-01-25T03:03:14;100408.78;;;7.64;63.26
84267;BME280;74414;51.098;13.716;2024-01-25T03:05:39;100419.16;;;7.67;63.03
84267;BME280;74414;51.098;13.716;2024-01-25T03:08:05;100420.63;;;7.65;63.49
84267;BME280;74414;51.098;13.716;2024-01-25T03:10:31;100415.00;;;7.61;63.49
84267;BME280;74414;51.098;13.716;2024-01-25T03:12:57;100426.50;;;7.63;63.71
84267;BME280;74414;51.098;13.716;2024-01-25T03:15:22;100417.41;;;7.63;63.32
84267;BME280;74414;51.098;13.716;2024-01-25T03:17:47;100426.03;;;7.61;63.33
84267;BME280;74414;51.098;13.716;2024-01-25T03:20:13;100426.50;;;7.63;63.37
84267;BME280;74414;51.098;13.716;2024-01-25T03:22:38;100423.94;;;7.58;63.64
84267;BME280;74414;51.098;13.716;2024-01-25T03:25:04;100431.41;;;7.58;63.80
84267;BME280;74414;51.098;13.716;2024-01-25T03:27:30;100419.56;;;7.57;63.77
84267;BME280;74414;51.098;13.716;2024-01-25T03:29:55;100421.50;;;7.57;63.52
84267;BME280;74414;51.098;13.716;2024-01-25T03:32:22;100417.94;;;7.56;63.52
84267;BME280;74414;51.098;13.716;2024-01-25T03:34:47;100424.59;;;7.55;63.91
84267;BME280;74414;51.098;13.716;2024-01-25T03:37:13;100423.31;;;7.53;63.22
84267;BME280;74414;51.098;13.716;2024-01-25T03:39:38;100423.31;;;7.53;63.45
84267;BME280;74414;51.098;13.716;2024-01-25T03:42:03;100433.22;;;7.54;63.20
84267;BME280;74414;51.098;13.716;2024-01-25T03:44:29;100432.16;;;7.46;63.42
84267;BME280;74414;51.098;13.716;2024-01-25T03:46:54;100433.75;;;7.47;63.40
84267;BME280;74414;51.098;13.716;2024-01-25T03:49:19;100441.53;;;7.45;63.58
84267;BME280;74414;51.098;13.716;2024-01-25T03:51:47;100438.78;;;7.45;63.08
84267;BME280;74414;51.098;13.716;2024-01-25T03:54:13;100430.06;;;7.43;63.40
84267;BME280;74414;51.098;13.716;2024-01-25T03:56:38;100429.91;;;7.40;63.60
84267;BME280;74414;51.098;13.716;2024-01-25T03:59:03;100429.91;;;7.40;63.40
84267;BME280;74414;51.098;13.716;2024-01-25T04:01:30;100432.34;;;7.41;63.06
84267;BME280;74414;51.098;13.716;2024-01-25T04:03:55;100436.25;;;7.40;63.05
84267;BME280;74414;51.098;13.716;2024-01-25T04:06:20;100424.75;;;7.38;63.58
84267;BME280;74414;51.098;13.716;2024-01-25T04:08:45;100426.56;;;7.34;63.27
84267;BME280;74414;51.098;13.716;2024-01-25T04:11:11;100426.56;;;7.34;63.53
84267;BME280;74414;51.098;13.716;2024-01-25T04:13:40;100435.94;;;7.33;63.54
84267;BME280;74414;51.098;13.716;2024-01-25T04:16:05;100432.72;;;7.31;63.82
84267;BME280;74414;51.098;13.716;2024-01-25T04:18:31;100421.72;;;7.31;63.71
84267;BME280;74414;51.098;13.716;2024-01-25T04:20:56;100425.63;;;7.30;63.73
84267;BME280;74414;51.098;13.716;2024-01-25T04:23:21;100436.97;;;7.28;63.71
84267;BME280;74414;51.098;13.716;2024-01-25T04:25:46;100436.69;;;7.21;63.93
84267;BME280;74414;51.098;13.716;2024-01-25T04:28:14;100439.78;;;7.20;64.23
84267;BME280;74414;51.098;13.716;2024-01-25T04:30:39;100435.75;;;7.17;64.31
84267;BME280;74414;51.098;13.716;2024-01-25T04:33:04;100436.69;;;7.21;63.49
84267;BME280;74414;51.098;13.716;2024-01-25T04:35:30;100439.13;;;7.23;63.77
84267;BME280;74414;51.098;13.716;2024-01-25T04:37:56;100433.16;;;7.21;63.89
84267;BME280;74414;51.098;13.716;2024-01-25T04:40:22;100437.50;;;7.22;63.67
84267;BME280;74414;51.098;13.716;2024-01-25T04:42:47;100446.44;;;7.19;63.89
84267;BME280;74414;51.098;13.716;2024-01-25T04:45:12;100440.94;;;7.19;64.01
84267;BME280;74414;51.098;13.716;2024-01-25T04:47:38;100445.16;;;7.16;64.10
84267;BME280;74414;51.098;13.716;2024-01-25T04:50:05;100443.34;;;7.20;63.98
84267;BME280;74414;51.098;13.716;2024-01-25T04:52:30;100439.66;;;7.16;63.80
84267;BME280;74414;51.098;13.716;2024-01-25T04:54:55;100450.63;;;7.25;63.78
84267;BME280;74414;51.098;13.716;2024-01-25T04:57:21;100457.25;;;7.24;63.65
84267;BME280;74414;51.098;13.716;2024-01-25T04:59:46;100454.28;;;7.29;63.18
84267;BME280;74414;51.098;13.716;2024-01-25T05:02:11;100458.88;;;7.25;63.74
84267;BME280;74414;51.098;13.716;2024-01-25T05:04:36;100461.94;;;7.23;63.65
84267;BME280;74414;51.098;13.716;2024-01-25T05:07:02;100461.16;;;7.23;63.96
84267;BME280;74414;51.098;13.716;2024-01-25T05:09:27;100457.94;;;7.21;63.76
84267;BME280;74414;51.098;13.716;2024-01-25T05:11:52;100448.47;;;7.30;63.21
84267;BME280;74414;51.098;13.716;2024-01-25T05:14:23;100444.91;;;7.30;63.50
84267;BME280;74414;51.098;13.716;2024-01-25T05:16:48;100437.59;;;7.34;63.67
84267;BME280;74414;51.098;13.716;2024-01-25T05:19:13;100456.53;;;7.35;63.07
84267;BME280;74414;51.098;13.716;2024-01-25T05:21:39;100450.19;;;7.35;62.79
84267;BME280;74414;51.098;13.716;2024-01-25T05:24:04;100459.97;;;7.32;62.99
84267;BME280;74414;51.098;13.716;2024-01-25T05:26:29;100465.78;;;7.31;62.81
84267;BME280;74414;51.098;13.716;2024-01-25T05:28:55;100471.28;;;7.31;62.80
84267;BME280;74414;51.098;13.716;2024-01-25T05:31:20;100484.59;;;7.29;62.93
84267;BME280;74414;51.098;13.716;2024-01-25T05:33:45;100471.16;;;7.27;63.22
84267;BME280;74414;51.098;13.716;2024-01-25T05:36:10;100477.97;;;7.30;62.50
84267;BME280;74414;51.098;13.716;2024-01-25T05:38:37;100479.25;;;7.32;62.57
84267;BME280;74414;51.098;13.716;2024-01-25T05:41:02;100463.50;;;7.33;62.20
84267;BME280;74414;51.098;13.716;2024-01-25T05:43:28;100477.75;;;7.35;62.24
84267;BME280;74414;51.098;13.716;2024-01-25T05:45:53;100491.88;;;7.33;62.08
84267;BME280;74414;51.098;13.716;2024-01-25T05:48:18;100497.50;;;7.37;62.26
84267;BME280;74414;51.098;13.716;2024-01-25T05:50:43;100494.28;;;7.35;62.32
84267;BME280;74414;51.098;13.716;2024-01-25T05:53:09;100511.16;;;7.33;62.03
84267;BME280;74414;51.098;13.716;2024-01-25T05:55:34;100519.06;;;7.35;62.09
84267;BME280;74414;51.098;13.716;2024-01-25T05:57:59;100525.06;;;7.37;62.40
84267;BME280;74414;51.098;13.716;2024-01-25T06:00:25;100516.66;;;7.33;62.43
84267;BME280;74414;51.098;13.716;2024-01-25T06:02:50;100535.13;;;7.33;62.45
84267;BME280;74414;51.098;13.716;2024-01-25T06:05:15;100528.84;;;7.32;62.20
84267;BME280;74414;51.098;13.716;2024-01-25T06:07:41;100539.84;;;7.32;62.53
84267;BME280;74414;51.098;13.716;2024-01-25T06:10:07;100534.34;;;7.32;63.07
84267;BME280;74414;51.098;13.716;2024-01-25T06:12:32;100550.72;;;7.29;62.73
84267;BME280;74414;51.098;13.716;2024-01-25T06:14:58;100544.28;;;7.25;62.99
84267;BME280;74414;51.098;13.716;2024-01-25T06:17:23;100546.22;;;7.24;63.00
84267;BME280;74414;51.098;13.716;2024-01-25T06:19:48;100537.94;;;7.24;63.41
84267;BME280;74414;51.098;13.716;2024-01-25T06:22:13;100526.63;;;7.17;63.39
84267;BME280;74414;51.098;13.716;2024-01-25T06:24:39;100525.69;;;7.13;63.13
84267;BME280;74414;51.098;13.716;2024-01-25T06:27:04;100531.22;;;7.13;63.31
84267;BME280;74414;51.098;13.716;2024-01-25T06:29:29;100528.75;;;7.12;62.85
84267;BME280;74414;51.098;13.716;2024-01-25T06:31:55;100544.97;;;7.13;62.93
84267;BME280;74414;51.098;13.716;2024-01-25T06:34:20;100534.41;;;7.15;62.59
84267;BME280;74414;51.098;13.716;2024-01-25T06:36:45;100542.38;;;7.17;62.70
84267;BME280;74414;51.098;13.716;2024-01-25T06:39:11;100534.75;;;7.14;62.69
84267;BME280;74414;51.098;13.716;2024-01-25T06:41:36;100544.03;;;7.09;62.98
84267;BME280;74414;51.098;13.716;2024-01-25T06:44:01;100548.72;;;7.09;62.62
84267;BME280;74414;51.098;13.716;2024-01-25T06:46:28;100552.59;;;7.08;62.79
84267;BME280;74414;51.098;13.716;2024-01-25T06:48:53;100560.38;;;7.06;62.91
84267;BME280;74414;51.098;13.716;2024-01-25T06:51:18;100574.63;;;7.08;63.05
84267;BME280;74414;51.098;13.716;2024-01-25T06:53:44;100579.66;;;7.06;63.15
84267;BME280;74414;51.098;13.716;2024-01-25T06:56:09;100574.47;;;7.04;63.20
84267;BME280;74414;51.098;13.716;2024-01-25T06:58:35;100568.97;;;7.04;63.32
84267;BME280;74414;51.098;13.716;2024-01-25T07:01:00;100578.06;;;7.05;62.76
84267;BME280;74414;51.098;13.716;2024-01-25T07:03:25;100590.66;;;7.06;62.39
84267;BME280;74414;51.098;13.716;2024-01-25T07:05:51;100597.47;;;7.08;62.81
84267;BME280;74414;51.098;13.716;2024-01-25T07:08:16;100594.38;;;7.10;62.34
84267;BME280;74414;51.098;13.716;2024-01-25T07:10:42;100590.97;;;7.13;62.70
84267;BME280;74414;51.098;13.716;2024-01-25T07:13:07;100607.03;;;7.11;62.51
84267;BME280;74414;51.098;13.716;2024-01-25T07:15:33;100608.16;;;7.10;62.05
84267;BME280;74414;51.098;13.716;2024-01-25T07:17:58;100601.19;;;7.12;61.59
84267;BME280;74414;51.098;13.716;2024-01-25T07:20:23;100593.06;;;7.16;61.53
84267;BME280;74414;51.098;13.716;2024-01-25T07:22:49;100596.78;;;7.20;60.86
84267;BME280;74414;51.098;13.716;2024-01-25T07:25:14;100596.28;;;7.26;60.92
84267;BME280;74414;51.098;13.716;2024-01-25T07:27:39;100596.28;;;7.26;60.80
84267;BME280;74414;51.098;13.716;2024-01-25T07:30:09;100618.97;;;7.23;60.78
84267;BME280;74414;51.098;13.716;2024-01-25T07:32:34;100618.78;;;7.28;60.57
84267;BME280;74414;51.098;13.716;2024-01-25T07:35:00;100611.00;;;7.30;60.70
84267;BME280;74414;51.098;13.716;2024-01-25T07:37:26;100626.53;;;7.35;61.07
84267;BME280;74414;51.098;13.716;2024-01-25T07:39:51;100629.13;;;7.40;60.76
84267;BME280;74414;51.098;13.716;2024-01-25T07:42:16;100629.41;;;7.47;60.90
84267;BME280;74414;51.098;13.716;2024-01-25T07:44:43;100629.06;;;7.49;60.43
84267;BME280;74414;51.098;13.716;2024-01-25T07:47:08;100628.28;;;7.48;60.75
84267;BME280;74414;51.098;13.716;2024-01-25T07:49:33;100633.59;;;7.53;60.67
84267;BME280;74414;51.098;13.716;2024-01-25T07:51:59;100643.31;;;7.51;60.63
84267;BME280;74414;51.098;13.716;2024-01-25T07:54:24;100632.63;;;7.49;60.48
84267;BME280;74414;51.098;13.716;2024-01-25T07:56:50;100642.06;;;7.48;60.82
84267;BME280;74414;51.098;13.716;2024-01-25T07:59:15;100642.84;;;7.49;60.94
84267;BME280;74414;51.098;13.716;2024-01-25T08:01:41;100642.97;;;7.52;60.62
84267;BME280;74414;51.098;13.716;2024-01-25T08:04:06;100646.69;;;7.56;60.88
84267;BME280;74414;51.098;13.716;2024-01-25T08:06:31;100637.28;;;7.57;60.39
84267;BME280;74414;51.098;13.716;2024-01-25T08:08:56;100643.28;;;7.59;60.01
84267;BME280;74414;51.098;13.716;2024-01-25T08:11:22;100634.47;;;7.66;60.08
84267;BME280;74414;51.098;13.716;2024-01-25T08:13:48;100636.09;;;7.67;59.40
84267;BME280;74414;51.098;13.716;2024-01-25T08:16:14;100641.91;;;7.74;59.67
84267;BME280;74414;51.098;13.716;2024-01-25T08:18:44;100648.69;;;7.76;59.64
84267;BME280;74414;51.098;13.716;2024-01-25T08:21:11;100645.47;;;7.74;59.35
84267;BME280;74414;51.098;13.716;2024-01-25T08:23:36;100652.94;;;7.74;59.45
84267;BME280;74414;51.098;13.716;2024-01-25T08:26:01;100647.88;;;7.76;59.59
84267;BME280;74414;51.098;13.716;2024-01-25T08:28:27;100645.25;;;7.79;59.17
84267;BME280;74414;51.098;13.716;2024-01-25T08:30:52;100653.72;;;7.83;59.36
84267;BME280;74414;51.098;13.716;2024-01-25T08:33:18;100663.91;;;7.82;59.51
84267;BME280;74414;51.098;13.716;2024-01-25T08:35:43;100655.31;;;7.84;59.88
84267;BME280;74414;51.098;13.716;2024-01-25T08:38:09;100666.13;;;7.89;59.38
84267;BME280;74414;51.098;13.716;2024-01-25T08:40:34;100664.63;;;8.00;59.24
84267;BME280;74414;51.098;13.716;2024-01-25T08:42:59;100669.84;;;7.93;59.45
84267;BME280;74414;51.098;13.716;2024-01-25T08:45:25;100674.41;;;7.89;59.61
84267;BME280;74414;51.098;13.716;2024-01-25T08:47:50;100673.16;;;7.86;59.72
84267;BME280;74414;51.098;13.716;2024-01-25T08:50:16;100687.72;;;7.87;60.52
84267;BME280;74414;51.098;13.716;2024-01-25T08:52:41;100688.06;;;7.85;60.74
84267;BME280;74414;51.098;13.716;2024-01-25T08:55:07;100688.91;;;7.77;60.95
84267;BME280;74414;51.098;13.716;2024-01-25T08:57:32;100695.78;;;7.71;61.50
84267;BME280;74414;51.098;13.716;2024-01-25T08:59:58;100683.25;;;7.74;61.56
84267;BME280;74414;51.098;13.716;2024-01-25T09:02:24;100697.66;;;7.79;61.59
84267;BME280;74414;51.098;13.716;2024-01-25T09:04:52;100686.78;;;7.83;61.33
84267;BME280;74414;51.098;13.716;2024-01-25T09:07:19;100688.84;;;7.94;61.37
84267;BME280;74414;51.098;13.716;2024-01-25T09:09:44;100692.34;;;8.03;60.58
84267;BME280;74414;51.098;13.716;2024-01-25T09:12:09;100695.03;;;8.12;60.45
84267;BME280;74414;51.098;13.716;2024-01-25T09:14:36;100699.50;;;9.07;58.29
84267;BME280;74414;51.098;13.716;2024-01-25T09:17:02;100691.53;;;9.63;55.80
84267;BME280;74414;51.098;13.716;2024-01-25T09:19:27;100693.72;;;9.00;57.62
84267;BME280;74414;51.098;13.716;2024-01-25T09:21:52;100680.16;;;8.54;58.59
84267;BME280;74414;51.098;13.716;2024-01-25T09:24:18;100684.41;;;8.52;59.12
84267;BME280;74414;51.098;13.716;2024-01-25T09:26:43;100688.78;;;8.53;59.09
84267;BME280;74414;51.098;13.716;2024-01-25T09:29:08;100698.59;;;8.83;58.29
84267;BME280;74414;51.098;13.716;2024-01-25T09:31:34;100704.53;;;8.73;58.51
84267;BME280;74414;51.098;13.716;2024-01-25T09:34:00;100700.88;;;8.60;59.08
84267;BME280;74414;51.098;13.716;2024-01-25T09:36:25;100709.03;;;8.57;59.54
84267;BME280;74414;51.098;13.716;2024-01-25T09:38:50;100717.75;;;8.67;59.11
84267;BME280;74414;51.098;13.716;2024-01-25T09:41:15;100720.22;;;8.60;59.24
84267;BME280;74414;51.098;13.716;2024-01-25T09:43:41;100722.66;;;8.62;59.41
84267;BME280;74414;51.098;13.716;2024-01-25T09:46:06;100730.00;;;8.58;59.38
84267;BME280;74414;51.098;13.716;2024-01-25T09:48:32;100730.13;;;8.41;59.77
84267;BME280;74414;51.098;13.716;2024-01-25T09:50:58;100728.50;;;8.40;60.10
84267;BME280;74414;51.098;13.716;2024-01-25T09:53:24;100750.09;;;8.38;60.26
84267;BME280;74414;51.098;13.716;2024-01-25T09:56:08;100751.53;;;8.44;60.14
84267;BME280;74414;51.098;13.716;2024-01-25T09:58:42;100751.53;;;8.64;59.58
84267;BME280;74414;51.098;13.716;2024-01-25T10:01:10;100760.41;;;8.70;59.43
84267;BME280;74414;51.098;13.716;2024-01-25T10:03:36;100751.66;;;8.68;59.77
84267;BME280;74414;51.098;13.716;2024-01-25T10:06:02;100749.31;;;8.58;59.61
84267;BME280;74414;51.098;13.716;2024-01-25T10:08:29;100754.31;;;8.35;60.13
84267;BME280;74414;51.098;13.716;2024-01-25T10:10:54;100768.66;;;8.29;60.12
84267;BME280;74414;51.098;13.716;2024-01-25T10:13:19;100772.38;;;8.33;59.98
84267;BME280;74414;51.098;13.716;2024-01-25T10:15:45;100765.06;;;8.37;59.58
84267;BME280;74414;51.098;13.716;2024-01-25T10:18:13;100773.16;;;8.33;59.41
84267;BME280;74414;51.098;13.716;2024-01-25T10:20:44;100766.84;;;8.33;58.95
84267;BME280;74414;51.098;13.716;2024-01-25T10:23:10;100773.84;;;8.30;58.80
84267;BME280;74414;51.098;13.716;2024-01-25T10:25:36;100778.84;;;8.37;58.95
84267;BME280;74414;51.098;13.716;2024-01-25T10:28:03;100793.88;;;8.48;58.80
84267;BME280;74414;51.098;13.716;2024-01-25T10:30:31;100793.66;;;8.53;58.95
84267;BME280;74414;51.098;13.716;2024-01-25T10:32:58;100787.09;;;8.66;58.78
84267;BME280;74414;51.098;13.716;2024-01-25T10:35:24;100784.78;;;8.68;58.92
84267;BME280;74414;51.098;13.716;2024-01-25T10:37:51;100772.88;;;8.76;58.69
84267;BME280;74414;51.098;13.716;2024-01-25T10:40:18;100766.81;;;9.03;57.96
84267;BME280;74414;51.098;13.716;2024-01-25T10:42:44;100758.63;;;9.27;57.38
84267;BME280;74414;51.098;13.716;2024-01-25T10:45:10;100764.34;;;9.10;57.52
84267;BME280;74414;51.098;13.716;2024-01-25T10:47:36;100734.72;;;10.12;54.84
84267;BME280;74414;51.098;13.716;2024-01-25T10:50:03;100751.59;;;12.82;46.39
84267;BME280;74414;51.098;13.716;2024-01-25T10:52:30;100757.97;;;11.27;50.69
84267;BME280;74414;51.098;13.716;2024-01-25T10:54:56;100772.25;;;13.80;44.27
84267;BME280;74414;51.098;13.716;2024-01-25T10:57:22;100767.13;;;11.70;48.38
84267;BME280;74414;51.098;13.716;2024-01-25T10:59:48;100770.09;;;10.31;52.47
84267;BME280;74414;51.098;13.716;2024-01-25T11:02:14;100753.59;;;9.41;55.19
84267;BME280;74414;51.098;13.716;2024-01-25T11:04:39;100768.63;;;8.99;56.55
84267;BME280;74414;51.098;13.716;2024-01-25T11:07:06;100756.09;;;8.60;57.31
84267;BME280;74414;51.098;13.716;2024-01-25T11:09:35;100769.97;;;8.52;57.77
84267;BME280;74414;51.098;13.716;2024-01-25T11:12:01;100768.16;;;8.56;58.12
84267;BME280;74414;51.098;13.716;2024-01-25T11:14:26;100767.09;;;8.69;58.32
84267;BME280;74414;51.098;13.716;2024-01-25T11:16:51;100765.63;;;8.71;58.49
84267;BME280;74414;51.098;13.716;2024-01-25T11:19:18;100766.69;;;8.79;57.86
84267;BME280;74414;51.098;13.716;2024-01-25T11:21:47;100752.22;;;8.61;58.33
84267;BME280;74414;51.098;13.716;2024-01-25T11:24:25;100752.88;;;8.58;58.68
84267;BME280;74414;51.098;13.716;2024-01-25T11:26:51;100763.53;;;8.89;57.90
84267;BME280;74414;51.098;13.716;2024-01-25T11:29:18;100751.59;;;8.76;58.31
84267;BME280;74414;51.098;13.716;2024-01-25T11:31:46;100756.84;;;8.49;59.12
84267;BME280;74414;51.098;13.716;2024-01-25T11:34:12;100751.53;;;8.44;59.22
84267;BME280;74414;51.098;13.716;2024-01-25T11:36:38;100758.13;;;8.51;59.15
84267;BME280;74414;51.098;13.716;2024-01-25T11:39:04;100758.81;;;8.69;58.71
84267;BME280;74414;51.098;13.716;2024-01-25T11:41:31;100753.56;;;8.76;58.82
84267;BME280;74414;51.098;13.716;2024-01-25T11:43:57;100755.38;;;8.72;59.14
84267;BME280;74414;51.098;13.716;2024-01-25T11:46:22;100756.34;;;9.08;58.20
84267;BME280;74414;51.098;13.716;2024-01-25T11:48:48;100763.22;;;9.23;57.89
84267;BME280;74414;51.098;13.716;2024-01-25T11:51:14;100764.94;;;9.60;56.05
84267;BME280;74414;51.098;13.716;2024-01-25T11:53:40;100773.38;;;11.67;52.35
84267;BME280;74414;51.098;13.716;2024-01-25T11:56:07;100770.34;;;13.42;45.92
84267;BME280;74414;51.098;13.716;2024-01-25T11:58:34;100768.94;;;13.52;45.67
84267;BME280;74414;51.098;13.716;2024-01-25T12:01:02;100769.03;;;13.36;45.17
84267;BME280;74414;51.098;13.716;2024-01-25T12:03:31;100774.00;;;15.48;41.15
84267;BME280;74414;51.098;13.716;2024-01-25T12:05:57;100775.25;;;18.00;36.33
84267;BME280;74414;51.098;13.716;2024-01-25T12:08:24;100758.69;;;15.72;38.35
84267;BME280;74414;51.098;13.716;2024-01-25T12:10:49;100750.69;;;12.59;44.95
84267;BME280;74414;51.098;13.716;2024-01-25T12:13:16;100754.53;;;10.90;48.95
84267;BME280;74414;51.098;13.716;2024-01-25T12:15:42;100758.28;;;9.85;52.12
84267;BME280;74414;51.098;13.716;2024-01-25T12:18:07;100752.94;;;9.44;53.91
84267;BME280;74414;51.098;13.716;2024-01-25T12:20:35;100751.56;;;9.50;54.33
84267;BME280;74414;51.098;13.716;2024-01-25T12:23:01;100765.41;;;9.74;54.13
84267;BME280;74414;51.098;13.716;2024-01-25T12:25:26;100762.47;;;9.79;53.90
84267;BME280;74414;51.098;13.716;2024-01-25T12:27:53;100763.38;;;9.95;53.82
84267;BME280;74414;51.098;13.716;2024-01-25T12:30:18;100765.84;;;10.97;51.58
84267;BME280;74414;51.098;13.716;2024-01-25T12:32:44;100761.13;;;12.00;49.10
84267;BME280;74414;51.098;13.716;2024-01-25T12:35:09;100756.66;;;11.36;50.10
84267;BME280;74414;51.098;13.716;2024-01-25T12:37:35;100745.53;;;10.29;51.93
84267;BME280;74414;51.098;13.716;2024-01-25T12:40:00;100739.47;;;9.67;53.97
84267;BME280;74414;51.098;13.716;2024-01-25T12:42:26;100737.00;;;9.41;54.70